createdAt,value
2022-09-05T00:05:03.273Z,16.30
2022-09-05T00:12:20.618Z,16.22
2022-09-05T00:24:20.081Z,16.30
2022-09-05T00:27:49.020Z,16.40
2022-09-05T00:35:08.126Z,16.40
2022-09-05T00:42:18.912Z,16.40
2022-09-05T00:50:00.524Z,16.40
2022-09-05T00:57:19.187Z,16.24
2022-09-05T01:04:51.694Z,16.20
2022-09-05T01:12:33.480Z,16.20
2022-09-05T01:20:19.118Z,16.10
2022-09-05T01:27:50.177Z,16.10
2022-09-05T01:35:35.057Z,15.90
2022-09-05T01:43:22.533Z,15.80
2022-09-05T01:50:57.964Z,15.80
2022-09-05T01:58:38.741Z,15.70
2022-09-05T02:06:30.025Z,15.60
2022-09-05T02:14:11.697Z,15.50
2022-09-05T02:21:55.775Z,15.40
2022-09-05T02:29:32.345Z,15.20
2022-09-05T02:37:11.720Z,15.16
2022-09-05T02:45:19.867Z,15.04
2022-09-05T02:57:29.696Z,14.90
2022-09-05T03:00:31.515Z,14.70
2022-09-05T03:08:10.496Z,14.70
2022-09-05T03:15:42.955Z,14.54
2022-09-05T03:23:23.420Z,14.50
2022-09-05T03:30:49.581Z,14.32
2022-09-05T03:38:11.965Z,14.20
2022-09-05T03:45:31.241Z,14.10
2022-09-05T03:57:08.730Z,13.94
2022-09-05T04:02:40.313Z,13.96
2022-09-05T04:08:52.533Z,14.00
2022-09-05T04:16:22.406Z,13.90
2022-09-05T04:23:43.228Z,13.90
2022-09-05T04:30:40.254Z,13.80
2022-09-05T04:37:52.018Z,13.70
2022-09-05T04:45:17.874Z,13.60
2022-09-05T04:52:57.107Z,13.50
2022-09-05T05:06:01.307Z,13.54
2022-09-05T05:08:04.060Z,13.60
2022-09-05T05:18:10.544Z,13.60
2022-09-05T05:23:07.324Z,13.70
2022-09-05T05:30:40.354Z,13.90
2022-09-05T05:38:13.427Z,14.00
2022-09-05T05:45:34.293Z,14.18
2022-09-05T05:53:06.868Z,14.30
2022-09-05T06:00:16.370Z,14.60
2022-09-05T06:09:33.768Z,14.80
2022-09-05T06:16:12.159Z,15.10
2022-09-05T06:23:46.894Z,15.50
2022-09-05T06:31:30.207Z,15.70
2022-09-05T06:38:59.055Z,15.90
2022-09-05T06:47:22.675Z,16.20
2022-09-05T06:54:26.680Z,16.50
2022-09-05T07:02:00.489Z,16.70
2022-09-05T07:09:22.276Z,17.00
2022-09-05T07:16:58.085Z,17.30
2022-09-05T07:24:54.358Z,17.44
2022-09-05T07:32:14.836Z,17.70
2022-09-05T07:39:29.549Z,18.00
2022-09-05T07:46:44.195Z,18.20
2022-09-05T07:56:52.572Z,18.50
2022-09-05T08:01:45.768Z,18.80
2022-09-05T08:10:05.280Z,19.00
2022-09-05T08:16:38.831Z,19.20
2022-09-05T08:24:13.224Z,19.46
2022-09-05T08:31:41.941Z,19.60
2022-09-05T08:39:02.291Z,19.90
2022-09-05T08:46:49.149Z,20.10
2022-09-05T08:54:28.722Z,20.30
2022-09-05T09:02:45.118Z,20.60
2022-09-05T09:09:53.420Z,20.80
2022-09-05T09:17:08.989Z,21.10
2022-09-05T09:25:14.412Z,21.20
2022-09-05T09:32:16.983Z,21.30
2022-09-05T09:39:56.147Z,21.32
2022-09-05T09:47:37.888Z,21.50
2022-09-05T09:55:07.591Z,21.82
2022-09-05T10:08:17.923Z,22.00
2022-09-05T10:11:09.784Z,21.60
2022-09-05T10:18:34.768Z,21.30
2022-09-05T10:26:06.052Z,21.10
2022-09-05T10:35:16.922Z,21.60
2022-09-05T10:41:28.231Z,22.10
2022-09-05T10:49:16.619Z,22.40
2022-09-05T10:56:52.446Z,22.08
2022-09-05T11:03:33.500Z,22.20
2022-09-05T11:11:34.813Z,22.30
2022-09-05T11:18:57.496Z,22.10
2022-09-05T11:26:07.124Z,21.80
2022-09-05T11:39:45.991Z,21.80
2022-09-05T11:41:19.213Z,21.80
2022-09-05T11:48:53.519Z,21.90
2022-09-05T11:56:03.463Z,21.70
2022-09-05T12:04:08.067Z,21.60
2022-09-05T12:11:45.370Z,21.40
2022-09-05T12:19:14.219Z,21.60
2022-09-05T12:27:39.239Z,21.90
2022-09-05T12:36:12.498Z,22.00
2022-09-05T12:42:40.122Z,22.10
2022-09-05T12:50:15.134Z,22.20
2022-09-05T13:01:08.146Z,22.30
2022-09-05T13:05:22.618Z,22.26
2022-09-05T13:14:52.428Z,22.40
2022-09-05T13:20:03.582Z,22.50
2022-09-05T13:27:27.389Z,22.40
2022-09-05T13:38:10.926Z,22.00
2022-09-05T13:42:24.728Z,21.90
2022-09-05T13:49:58.841Z,21.88
2022-09-05T13:57:32.468Z,21.70
2022-09-05T14:05:07.127Z,21.80
2022-09-05T14:12:28.070Z,22.10
2022-09-05T14:19:40.730Z,22.30
2022-09-05T14:26:56.969Z,22.40
2022-09-05T14:37:51.403Z,22.50
2022-09-05T14:41:40.025Z,22.40
2022-09-05T14:49:05.544Z,22.30
2022-09-05T14:58:34.641Z,22.30
2022-09-05T15:12:22.078Z,22.30
2022-09-05T15:18:26.729Z,22.20
2022-09-05T15:25:40.310Z,22.20
2022-09-05T15:32:51.352Z,22.00
2022-09-05T15:39:20.792Z,21.90
2022-09-05T15:46:30.903Z,21.76
2022-09-05T15:53:37.294Z,21.70
2022-09-05T16:00:42.566Z,21.62
2022-09-05T16:10:40.244Z,21.50
2022-09-05T16:15:58.527Z,21.30
2022-09-05T16:23:25.662Z,21.18
2022-09-05T16:29:26.655Z,21.00
2022-09-05T16:36:32.548Z,20.92
2022-09-05T16:43:56.148Z,20.80
2022-09-05T16:51:15.783Z,20.70
2022-09-05T16:58:22.277Z,20.46
2022-09-05T17:06:05.439Z,20.26
2022-09-05T17:13:10.854Z,20.10
2022-09-05T17:20:14.753Z,19.82
2022-09-05T17:29:34.490Z,19.60
2022-09-05T17:33:49.620Z,19.50
2022-09-05T17:41:04.351Z,19.30
2022-09-05T17:48:16.163Z,19.10
2022-09-05T17:55:20.375Z,18.90
2022-09-05T18:02:23.346Z,18.80
2022-09-05T18:09:18.348Z,18.60
2022-09-05T18:16:28.391Z,18.42
2022-09-05T18:23:41.082Z,18.30
2022-09-05T18:30:36.369Z,18.20
2022-09-05T18:37:46.650Z,18.10
2022-09-05T18:45:15.418Z,17.90
2022-09-05T18:52:23.348Z,17.72
2022-09-05T18:59:24.703Z,17.60
2022-09-05T19:06:35.660Z,17.50
2022-09-05T19:13:43.265Z,17.40
2022-09-05T19:20:50.460Z,17.30
2022-09-05T19:32:56.034Z,17.16
2022-09-05T19:37:22.666Z,17.10
2022-09-05T19:47:28.334Z,17.00
2022-09-05T19:49:20.911Z,16.90
2022-09-05T19:56:23.909Z,16.84
2022-09-05T20:03:39.196Z,16.80
2022-09-05T20:10:42.955Z,16.70
2022-09-05T20:17:43.179Z,16.60
2022-09-05T20:24:34.268Z,16.50
2022-09-05T20:31:43.504Z,16.40
2022-09-05T20:43:20.489Z,16.30
2022-09-05T20:50:38.703Z,16.20
2022-09-05T20:54:17.179Z,16.10
2022-09-05T21:01:21.257Z,15.90
2022-09-05T21:08:25.109Z,15.80
2022-09-05T21:15:52.138Z,15.76
2022-09-05T21:22:49.419Z,15.70
2022-09-05T21:30:07.784Z,15.60
2022-09-05T21:37:07.206Z,15.40
2022-09-05T21:44:10.633Z,15.38
2022-09-05T21:51:26.139Z,15.30
2022-09-05T21:59:26.347Z,15.22
2022-09-05T22:05:52.095Z,15.20
2022-09-05T22:12:41.406Z,15.10
2022-09-05T22:19:38.201Z,15.00
2022-09-05T22:26:33.567Z,14.90
2022-09-05T22:33:36.606Z,14.74
2022-09-05T22:40:39.710Z,14.70
2022-09-05T22:47:42.267Z,14.60
2022-09-05T22:54:20.281Z,14.64
2022-09-05T23:01:22.105Z,14.60
2022-09-05T23:08:17.162Z,14.60
2022-09-05T23:15:01.499Z,14.60
2022-09-05T23:21:46.678Z,14.64
2022-09-05T23:28:46.972Z,14.60
2022-09-05T23:35:41.054Z,14.60
2022-09-05T23:42:44.049Z,14.58
2022-09-05T23:49:46.753Z,14.50
2022-09-05T23:56:49.452Z,14.40
